Latest Weather Observations for Cape Leeuwin

IDW60801

Issued at 6:23 am WST Tuesday 17 September 2019 (issued every 10 minutes, with the page automatically refreshed every 10 minutes)

About weather observations | Map of weather stations | Latest weather observations for WA | Other Formats
Station Details ID: 009518 Name: CAPE LEEUWIN Lat: -34.37 Lon: 115.14 Height: 13.0 m
Data from the previous 72 hours. | See also: Recent months at Cape Leeuwin
Date/Time
WST
Temp
°C
App
Temp
°C
Dew
Point
°C
Rel
Hum
%
Delta-T
°C
Wind Press
QNH
hPa
Press
MSL
hPa
Rain since
9am
mm
Dir  Spd
km/h
Gust
km/h
Spd
kts
Gust
kts
17/06:00am 16.0 15.4 13.5 85 1.4 SSE 9 13 5 7 1016.1 1016.1 0.0
17/05:30am 16.1 15.5 13.6 85 1.4 ESE 9 11 5 6 1016.0 1016.0 0.0
17/05:00am 15.9 15.4 13.8 87 1.2 SSE 9 11 5 6 1016.4 1016.4 0.0
17/04:30am 16.2 15.4 13.9 86 1.3 SSE 11 15 6 8 1016.2 1016.2 0.0
17/04:00am 16.4 15.2 13.9 85 1.4 SSE 13 17 7 9 1016.0 1016.0 0.0
17/03:30am 16.4 14.7 12.6 78 2.1 SSE 13 17 7 9 1016.3 1016.3 0.0
17/03:00am 16.5 15.0 13.1 80 1.9 SSE 13 15 7 8 1016.6 1016.6 0.0
17/02:30am 16.3 14.6 12.5 78 2.1 SSE 13 17 7 9 1016.7 1016.7 0.0
17/02:00am 16.3 14.1 12.1 76 2.3 SSE 15 17 8 9 1016.8 1016.8 0.0
17/01:30am 16.4 14.7 12.6 78 2.1 SSE 13 17 7 9 1017.5 1017.5 0.0
17/01:00am 16.6 15.1 13.2 80 1.9 SE 13 17 7 9 1017.6 1017.6 0.0
17/12:30am 16.6 14.7 13.0 79 2.0 SE 15 19 8 10 1017.9 1017.9 0.0
17/12:00am 16.6 14.2 12.8 78 2.1 SE 17 20 9 11 1018.2 1018.2 0.0
 
Date/Time
WST
Temp
°C
App
Temp
°C
Dew
Point
°C
Rel
Hum
%
Delta-T
°C
Wind Press
QNH
hPa
Press
MSL
hPa
Rain since
9am
mm
Dir  Spd
km/h
Gust
km/h
Spd
kts
Gust
kts
16/11:30pm 16.6 14.6 12.8 78 2.1 SE 15 20 8 11 1018.7 1018.7 0.0
16/11:00pm 16.7 14.6 12.5 76 2.3 SE 15 20 8 11 1018.9 1018.9 0.0
16/10:30pm 16.8 14.4 12.8 77 2.2 SSE 17 19 9 10 1019.3 1019.3 0.0
16/10:00pm 16.8 14.4 12.6 76 2.3 SE 17 20 9 11 1019.5 1019.5 0.0
16/09:30pm 16.8 13.8 12.0 73 2.6 SSE 19 22 10 12 1019.8 1019.8 0.0
16/09:00pm 16.7 13.7 12.1 74 2.5 SSE 19 20 10 11 1019.8 1019.8 0.0
16/08:30pm 16.8 14.3 12.2 74 2.5 SSE 17 20 9 11 1019.8 1019.8 0.0
16/08:00pm 17.0 14.5 12.3 74 2.6 SSE 17 20 9 11 1019.9 1019.9 0.0
16/07:30pm 17.0 14.9 12.5 75 2.5 SSE 15 20 8 11 1019.8 1019.8 0.0
16/07:00pm 17.0 14.9 12.3 74 2.6 SSE 15 20 8 11 1019.6 1019.6 0.0
16/06:30pm 17.0 15.2 12.1 73 2.7 SSE 13 19 7 10 1019.7 1019.7 0.0
16/06:00pm 17.1 14.9 12.2 73 2.7 SE 15 19 8 10 1019.6 1019.6 0.0
16/05:30pm 17.5 15.4 12.4 72 2.8 SE 15 20 8 11 1019.4 1019.4 0.0
16/05:00pm 17.8 15.7 12.4 70 3.0 SE 15 19 8 10 1019.4 1019.4 0.0
16/04:30pm 17.9 15.4 12.3 70 3.1 SE 17 20 9 11 1019.5 1019.5 0.0
16/04:00pm 18.1 15.5 12.1 68 3.3 SSE 17 20 9 11 1019.5 1019.5 0.0
16/03:30pm 18.6 16.8 12.1 66 3.6 SSE 13 19 7 10 1019.7 1019.7 0.0
16/03:00pm 18.9 16.9 11.6 62 4.0 SSE 13 17 7 9 1020.0 1020.0 0.0
16/02:30pm 19.5 17.1 11.5 60 4.4 SSE 15 19 8 10 1020.1 1020.1 0.0
16/02:00pm 19.9 17.8 11.3 57 4.7 SSE 13 19 7 10 1020.5 1020.5 0.0
16/01:30pm 20.2 17.8 11.3 56 4.9 S 15 19 8 10 1020.7 1020.7 0.0
16/01:00pm 19.7 17.2 11.1 57 4.7 SE 15 19 8 10 1021.0 1021.0 0.0
16/12:30pm 20.0 16.7 11.0 56 4.9 ESE 19 20 10 11 1021.2 1021.2 0.0
16/12:00pm 19.4 15.5 10.7 57 4.7 E 22 26 12 14 1021.6 1021.6 0.0
16/11:30am 19.3 14.1 10.1 55 4.9 NE 28 35 15 19 1021.8 1021.8 0.0
16/11:00am 18.6 13.3 9.9 57 4.6 NE 28 39 15 21 1022.2 1022.2 0.0
16/10:30am 17.8 11.7 9.6 58 4.3 NE 32 41 17 22 1022.4 1022.4 0.0
16/10:00am 16.8 10.0 9.3 61 3.9 NE 35 46 19 25 1022.6 1022.6 0.0
16/09:30am 15.9 9.1 9.3 65 3.4 NE 35 46 19 25 1022.7 1022.7 0.0
16/09:00am 15.2 8.2 9.8 70 2.8 NE 37 46 20 25 1023.0 1023.0 0.0
16/08:30am 14.1 8.0 9.6 74 2.3 NE 32 43 17 23 1023.1 1023.1 0.0
16/08:00am 12.9 6.6 8.9 76 2.0 NE 32 43 17 23 1023.3 1023.3 0.0
16/07:30am 12.2 5.7 9.0 81 1.6 ENE 33 41 18 22 1023.5 1023.5 0.0
16/07:00am 12.1 5.4 9.5 84 1.3 ENE 35 44 19 24 1023.8 1023.8 0.0
16/06:30am 11.9 5.5 9.3 84 1.3 ENE 33 39 18 21 1023.8 1023.8 0.0
16/06:00am 12.3 5.6 9.5 83 1.4 ENE 35 41 19 22 1023.9 1023.9 0.0
16/05:30am 12.4 4.8 9.0 80 1.7 ENE 39 46 21 25 1023.6 1023.6 0.0
16/05:00am 12.7 4.3 9.1 79 1.8 ENE 43 52 23 28 1023.6 1023.6 0.0
16/04:30am 12.9 5.0 9.5 80 1.7 ENE 41 48 22 26 1023.6 1023.6 0.0
16/04:00am 13.2 4.8 9.0 75 2.1 ENE 43 48 23 26 1023.7 1023.7 0.0
16/03:30am 13.3 5.0 9.3 77 2.0 ENE 43 52 23 28 1023.8 1023.8 0.0
16/03:00am 13.5 5.2 9.4 76 2.1 ENE 43 50 23 27 1024.0 1024.0 0.0
16/02:30am 13.7 5.5 9.6 76 2.1 ENE 43 50 23 27 1024.2 1024.2 0.0
16/02:00am 13.9 6.1 9.6 75 2.2 E 41 48 22 26 1024.7 1024.7 0.0
16/01:30am 14.3 6.6 10.0 75 2.2 E 41 48 22 26 1024.8 1024.8 0.0
16/01:00am 14.2 6.0 9.7 74 2.3 E 43 50 23 27 1025.0 1025.0 0.0
16/12:30am 14.5 5.7 9.6 72 2.5 E 46 54 25 29 1025.4 1025.4 0.0
16/12:00am 14.6 5.8 9.5 71 2.6 E 46 54 25 29 1025.5 1025.5 0.0
 
Date/Time
WST
Temp
°C
App
Temp
°C
Dew
Point
°C
Rel
Hum
%
Delta-T
°C
Wind Press
QNH
hPa
Press
MSL
hPa
Rain since
9am
mm
Dir  Spd
km/h
Gust
km/h
Spd
kts
Gust
kts
15/11:30pm 14.8 5.6 9.5 70 2.7 E 48 54 26 29 1025.8 1025.8 0.0
15/11:00pm 15.0 5.9 10.0 72 2.6 E 48 56 26 30 1025.9 1025.9 0.0
15/10:30pm 15.2 6.6 10.2 72 2.6 E 46 54 25 29 1026.2 1026.2 0.0
15/10:00pm 15.1 6.8 9.9 71 2.7 E 44 54 24 29 1026.3 1026.3 0.0
15/09:30pm 15.6 8.0 10.5 71 2.7 ESE 41 48 22 26 1026.5 1026.5 0.0
15/09:00pm 15.7 7.7 10.4 71 2.8 ESE 43 50 23 27 1026.2 1026.2 0.0
15/08:30pm 15.9 9.4 10.2 69 3.0 ESE 35 43 19 23 1026.3 1026.3 0.0
15/08:00pm 15.8 9.8 10.0 68 3.0 ESE 32 44 17 24 1026.3 1026.3 0.0
15/07:30pm 15.8 10.4 9.4 65 3.3 SE 28 37 15 20 1025.9 1025.9 0.0
15/07:00pm 15.5 9.7 9.3 66 3.2 SE 30 39 16 21 1025.3 1025.3 0.0
15/06:30pm 15.6 9.8 9.6 67 3.1 SE 30 41 16 22 1025.3 1025.3 0.0
15/06:00pm 15.4 9.4 8.7 64 3.4 SE 30 35 16 19 1025.4 1025.4 0.0
15/05:30pm 15.6 10.3 8.5 62 3.6 SE 26 37 14 20 1024.9 1024.9 0.0
15/05:00pm 15.8 10.4 8.2 60 3.8 SE 26 35 14 19 1025.0 1025.0 0.0
15/04:30pm 16.6 11.6 9.5 63 3.7 SE 26 35 14 19 1025.0 1025.0 0.0
15/04:00pm 16.5 11.2 8.6 59 4.0 SE 26 32 14 17 1025.1 1025.1 0.0
15/03:30pm 16.7 11.4 8.4 58 4.2 SE 26 32 14 17 1025.2 1025.2 0.0
15/03:00pm 17.3 12.9 7.5 52 4.9 SE 20 30 11 16 1025.3 1025.3 0.0
15/02:30pm 17.5 13.1 7.5 52 5.0 SSE 20 28 11 15 1025.5 1025.5 0.0
15/02:00pm 18.2 14.1 8.0 51 5.2 SE 19 24 10 13 1025.7 1025.7 0.0
15/01:30pm 17.3 13.4 7.0 50 5.1 SE 17 24 9 13 1025.9 1025.9 0.0
15/01:00pm 18.0 14.5 7.4 50 5.3 SE 15 24 8 13 1026.2 1026.2 0.0
15/12:30pm 17.7 13.7 6.8 49 5.4 SE 17 22 9 12 1026.3 1026.3 0.0
15/12:00pm 17.5 13.6 7.0 50 5.2 SE 17 24 9 13 1026.5 1026.5 0.0
15/11:30am 16.9 13.1 5.9 48 5.3 SE 15 22 8 12 1026.6 1026.6 0.0
15/11:00am 17.2 13.3 5.5 46 5.6 S 15 20 8 11 1026.7 1026.7 0.0
15/10:30am 17.1 13.3 5.9 47 5.4 S 15 20 8 11 1026.6 1026.6 0.0
15/10:00am 16.9 13.1 5.9 48 5.3 SSE 15 20 8 11 1026.7 1026.7 0.0
15/09:30am 16.9 13.2 6.2 49 5.2 SSE 15 20 8 11 1026.7 1026.7 0.0
15/09:00am 16.2 12.5 6.3 52 4.8 SSE 15 20 8 11 1026.6 1026.6 0.0
15/08:30am 16.1 12.5 6.9 54 4.5 S 15 22 8 12 1026.6 1026.6 0.0
15/08:00am 15.6 11.3 6.8 56 4.3 S 19 26 10 14 1026.6 1026.6 0.0
15/07:30am 14.5 9.8 6.1 57 4.0 S 20 26 11 14 1026.3 1026.3 0.0
15/07:00am 14.3 9.7 6.4 59 3.8 SSW 20 26 11 14 1025.8 1025.8 0.0
15/06:30am 14.1 9.3 5.6 56 4.0 SSW 20 26 11 14 1025.6 1025.6 0.0
15/06:00am 13.9 9.1 5.8 58 3.8 SSW 20 28 11 15 1025.3 1025.3 0.0
15/05:30am 14.3 9.7 6.4 59 3.8 SSW 20 30 11 16 1025.3 1025.3 0.0
15/05:00am 14.2 9.8 6.7 60 3.6 SSW 19 24 10 13 1024.8 1024.8 0.0
15/04:30am 14.3 9.5 7.3 63 3.4 SSW 22 26 12 14 1024.7 1024.7 0.0
15/04:00am 14.1 9.3 7.3 63 3.3 SSW 22 28 12 15 1024.7 1024.7 0.0
15/03:30am 14.2 10.3 7.2 63 3.4 SSW 17 24 9 13 1024.5 1024.5 0.0
15/03:00am 14.3 9.9 7.3 63 3.4 SSW 20 28 11 15 1024.4 1024.4 0.0
15/02:30am 14.4 10.6 7.7 64 3.3 SSW 17 24 9 13 1024.5 1024.5 0.0
15/02:00am 14.5 10.3 7.6 63 3.4 SSW 19 26 10 14 1024.5 1024.5 0.0
15/01:30am 14.5 10.5 8.1 65 3.2 SSW 19 24 10 13 1024.5 1024.5 0.0
15/01:00am 14.5 10.4 8.7 68 2.9 SSW 20 26 11 14 1024.5 1024.5 0.0
15/12:30am 14.2 11.0 8.4 68 2.9 SSW 15 24 8 13 1024.4 1024.4 0.0
15/12:00am 14.6 10.7 9.5 71 2.6 SSW 20 28 11 15 1024.3 1024.3 0.0
 
Date/Time
WST
Temp
°C
App
Temp
°C
Dew
Point
°C
Rel
Hum
%
Delta-T
°C
Wind Press
QNH
hPa
Press
MSL
hPa
Rain since
9am
mm
Dir  Spd
km/h
Gust
km/h
Spd
kts
Gust
kts
14/11:30pm 14.8 10.7 8.6 66 3.1 SSW 20 28 11 15 1024.1 1024.1 0.0
14/11:00pm 14.9 11.0 8.5 65 3.2 S 19 28 10 15 1024.1 1024.1 0.0
14/10:30pm 14.7 10.8 8.8 68 3.0 S 19 24 10 13 1024.2 1024.2 0.0
14/10:00pm 15.0 11.4 8.4 64 3.3 SSW 17 22 9 12 1024.4 1024.4 0.0
14/09:30pm 15.4 11.6 7.7 60 3.8 SW 17 22 9 12 1024.6 1024.6 0.0
14/09:00pm 15.1 11.5 8.3 64 3.4 SW 17 20 9 11 1024.7 1024.7 0.0
14/08:30pm 15.1 11.1 8.1 63 3.5 SW 19 22 10 12 1024.7 1024.7 0.0
14/08:00pm 15.4 11.0 8.9 65 3.3 SW 22 28 12 15 1024.5 1024.5 0.0
14/07:30pm 16.0 11.5 8.7 62 3.7 WSW 22 28 12 15 1024.5 1024.5 0.0
14/07:00pm 16.2 11.5 9.2 63 3.6 WSW 24 28 13 15 1024.1 1024.1 0.0
14/06:30pm 16.2 11.1 9.2 63 3.6 WSW 26 30 14 16 1023.8 1023.8 0.0
14/06:00pm 16.4 11.9 9.9 65 3.4 WSW 24 30 13 16 1023.4 1023.4 0.0
14/05:30pm 16.9 13.5 10.7 67 3.3 WSW 19 22 10 12 1023.0 1023.0 0.0
14/05:00pm 17.5 13.7 9.9 61 4.0 WSW 20 24 11 13 1022.9 1022.9 0.0
14/04:30pm 17.9 14.0 9.3 57 4.5 WSW 20 24 11 13 1022.8 1022.8 0.0
14/04:00pm 18.1 14.4 10.2 60 4.2 WSW 20 24 11 13 1022.6 1022.6 0.0
14/03:30pm 18.7 15.3 11.4 62 4.0 WSW 20 24 11 13 1022.5 1022.5 0.0
14/03:00pm 18.8 14.4 10.4 58 4.5 WSW 24 28 13 15 1022.6 1022.6 0.0
14/02:30pm 18.5 14.0 10.2 58 4.4 WSW 24 32 13 17 1022.6 1022.6 0.0
14/02:00pm 19.0 15.3 11.5 61 4.1 W 22 28 12 15 1022.7 1022.7 0.0
14/01:30pm 18.9 16.0 12.8 67 3.4 W 20 26 11 14 1022.9 1022.9 0.0
14/01:00pm 18.6 16.0 13.1 70 3.1 W 19 22 10 12 1023.0 1023.0 0.0
14/12:30pm 18.3 15.6 12.9 71 3.0 W 19 22 10 12 1023.1 1023.1 0.0
14/12:00pm 18.9 16.9 13.8 72 2.9 WSW 17 22 9 12 1023.1 1023.1 0.0
14/11:30am 18.2 16.2 13.8 75 2.5 W 17 20 9 11 1023.1 1023.1 0.0
14/11:00am 18.5 16.8 13.6 73 2.8 WSW 15 19 8 10 1023.1 1023.1 0.0
14/10:30am 18.2 16.2 13.8 75 2.5 WSW 17 20 9 11 1023.3 1023.3 0.0
14/10:00am 17.7 15.2 14.0 79 2.1 WSW 20 24 11 13 1023.4 1023.4 0.0
14/09:30am 18.0 15.1 14.1 78 2.2 WSW 22 28 12 15 1023.2 1023.2 0.0
14/09:00am 17.6 15.1 14.1 80 2.0 WSW 20 24 11 13 1022.8 1022.8 0.0
14/08:30am 17.5 14.5 14.9 85 1.5 WSW 24 28 13 15 1022.6 1022.6 0.0
14/08:00am 17.3 14.6 14.7 85 1.5 W 22 26 12 14 1022.0 1022.0 0.0
14/07:30am 17.5 14.3 15.3 87 1.3 WSW 26 28 14 15 1021.6 1021.6 0.0
14/07:00am 17.4 13.8 15.2 87 1.3 WSW 28 35 15 19 1021.4 1021.4 0.0
14/06:30am 17.6 13.8 14.6 82 1.7 WSW 28 33 15 18 1021.0 1021.0 0.0

Other formats

Comma delimited format used in spreadsheet applications
http://www.bom.gov.au/fwo/IDW60801/IDW60801.94601.axf

JavaScript Object Notation format (JSON) in row-major order
http://www.bom.gov.au/fwo/IDW60801/IDW60801.94601.json

Data quality

Most of these data are generated automatically and are frequently updated. Quality checks on data are not normally performed. It is possible for incorrect values to appear. Refer to information at About Latest Weather Observations and please check the disclaimer before using these data.